메인 페이지
METAR-TAF:

METAR-TAF

공항 :

Vance Air Force Base, 오클라호마, 미국

위도: 36-20N, 경도: 097-55W, 고도: 398m

현재 날씨관측

예보는 40분 전, 08:56시(UTC)에 발표되었습니다.
동남동9kt
온도 8°C
습도 100%
기압 1018 hPa
시정: 16.1km
고도 2500ft 상공 흐림

METAR: KEND 200856Z AUTO 11009KT 10SM OVC025 08/08 A3006 RMK AO2 SLP181 T00760076 58005

시각: 04:36 (09:36 UTC)

예보

예보는 7 시간 36분 전, 02:00시(UTC)에 발표되었습니다.
예보 대상 시간: 20일 02시부터 21일 08시까지 (UTC)
여러 방향의 바람 6kt
시정 10km 이상
맑음
전환 중
20일 08시부터 20일 09시까지 (UTC)
여러 방향의 바람 6kt
시정: 8000m
고도 500ft 상공 구름 많음
박무
일시적
20일 17시부터 20일 21시까지 (UTC)
여러 방향의 바람 6kt
시정: 8000m
약한비
전환 중
21일 07시부터 21일 08시까지 (UTC)
북동6kt
시정: 8000m
고도 500ft 상공 흐림
약한비

TAF: KEND 200200Z 2002/2108 VRB06KT 9999 SKC QNH3006INS BECMG 2008/2009 VRB06KT 8000 BR BKN005 510063 QNH3005INS TEMPO 2017/2021 VRB06KT 8000 -RA BECMG 2107/2108 04006KT 8000 -RA OVC005 510052 QNH3004INS TX12/2022Z TN07/2008Z

4,000개 이상의 공항 관측 자료 및 예보 (METAR 및 TAF 보고).

지도상에서 검색 가능한 기상관측소가 노란 점과 빨간 점으로 표시되어 있습니다.

기상관측소 명을 보려면 표시 위로 마우스를 이동하세요.

날씨 관측과 예보를 보려면 클릭하세요.

지도 변경 : 확대하려면 엑스 표시가 있는 녹색 버튼, 축소하려면 빼기 표시가 있는 녹색 버튼, 다음 페이지의 지도를 보려면 녹색 화살표를 클릭하세요.


METAR-TAF: